< < Back
Terminal Aerodrome Forecast


Current Version              Previous Versions:   1  2  3  4  5  6  7  8  9  

Terminal Aerodrome Forecast

612
FTUS42 KJAX 261611 AAB
TAFSSI
TAF AMD
KSSI 261611Z 2616/2712 27014G22KT P6SM SCT035
     FM261800 27015G22KT P6SM BKN035
     FM270000 27012G20KT P6SM SCT100=

Latest METAR

575
SAUS70 KWBC 261600 RRB
MTRSSI
METAR KSSI 261553Z AUTO 27014G25KT 10SM FEW034 13/04 A2980 RMK AO2
SLP092 T01280039


USA.gov is the U.S. government's official web portal to all federal, state and local government web resources and services.